createdAt,value
2023-11-25T21:08:34.890Z,92379.44
2023-11-25T21:11:01.723Z,92390.78
2023-11-25T21:13:28.628Z,92383.59
2023-11-25T21:15:57.638Z,92386.34
2023-11-25T21:20:25.605Z,92408.63
2023-11-25T21:22:55.495Z,92410.22
2023-11-25T21:25:23.218Z,92410.84
2023-11-25T21:27:51.018Z,92415.88
2023-11-25T21:30:20.446Z,92401.34
2023-11-25T21:32:51.885Z,92410.81
2023-11-25T21:35:21.023Z,92418.25
2023-11-25T21:37:50.115Z,92417.75
2023-11-25T21:40:23.580Z,92417.16
2023-11-25T21:42:53.672Z,92406.56
2023-11-25T21:45:20.573Z,92405.22
2023-11-25T21:47:47.507Z,92393.31
2023-11-25T21:50:16.691Z,92398.06
2023-11-25T21:52:43.568Z,92392.25
2023-11-25T21:55:10.520Z,92390.88
2023-11-25T21:57:43.040Z,92402.25
2023-11-25T22:00:15.877Z,92397.19
2023-11-25T22:02:42.983Z,92400.63
2023-11-25T22:05:11.910Z,92401.13
2023-11-25T22:07:41.211Z,92392.16
2023-11-25T22:10:21.414Z,92387.91
2023-11-25T22:12:54.272Z,92391.06
2023-11-25T22:15:21.149Z,92392.63
2023-11-25T22:17:50.281Z,92395.78
2023-11-25T22:20:17.857Z,92396.28
2023-11-25T22:22:45.761Z,92393.66
2023-11-25T22:25:24.535Z,92380.97
2023-11-25T22:27:51.219Z,92387.84
2023-11-25T22:30:20.239Z,92399.97
2023-11-25T22:32:49.245Z,92390.97
2023-11-25T22:35:20.750Z,92403.88
2023-11-25T22:37:53.164Z,92409.97
2023-11-25T22:40:20.034Z,92398.91
2023-11-25T22:42:46.941Z,92398.06
2023-11-25T22:45:14.720Z,92400.41
2023-11-25T22:47:41.881Z,92398.91
2023-11-25T22:50:09.724Z,92402.31
2023-11-25T22:52:38.775Z,92394.63
2023-11-25T22:55:05.630Z,92384.59
2023-11-25T22:57:36.498Z,92388.78
2023-11-25T23:00:05.865Z,92386.16
2023-11-25T23:02:34.717Z,92376.41
2023-11-25T23:05:02.955Z,92371.91
2023-11-25T23:07:32.050Z,92363.03
2023-11-25T23:10:01.558Z,92364.16
2023-11-25T23:12:30.499Z,92364.75
2023-11-25T23:14:59.693Z,92359.31
2023-11-25T23:17:28.739Z,92349.22
2023-11-25T23:19:55.898Z,92361.88
2023-11-25T23:22:24.957Z,92373.22
2023-11-25T23:24:54.867Z,92382.72
2023-11-25T23:27:26.214Z,92401.94
2023-11-25T23:29:57.774Z,92408.78
2023-11-25T23:32:27.100Z,92414.06
2023-11-25T23:34:56.251Z,92418.81
2023-11-25T23:37:23.049Z,92417.75
2023-11-25T23:39:49.797Z,92404.56
2023-11-25T23:42:16.727Z,92393.47
2023-11-25T23:44:47.510Z,92388.19
2023-11-25T23:47:16.455Z,92386.88
2023-11-25T23:49:43.217Z,92380.53
2023-11-25T23:52:16.177Z,92384.75
2023-11-25T23:54:43.272Z,92400.00
2023-11-25T23:57:10.076Z,92407.66
2023-11-25T23:59:40.124Z,92410.50
